Terminal Aerodrome Forecast
Issued by NWS Detroit/Pontiac, MI

Home | Current Version | Previous Version | Text Only | Print | Product List | Glossary On
Versions: 1 2 3 4 5 6 7 8 9 10 11 12 13 14 15 16 17 18 19 20 21 22 23 24 25 26 27
582
FTUS43 KDTX 091737
TAFDTW
TAF
KDTW 091737Z 0918/1024 28009G17KT P6SM SCT028 BKN040
     FM091900 28009G17KT 6SM -SHSN SCT028 BKN040
     FM100000 27009KT P6SM BKN035
     FM100700 26008KT 5SM -SHSN SCT015 OVC025
      TEMPO 1012/1016 2SM -SHSN BKN015 OVC025
     FM101800 24010KT P6SM BKN025 BKN035=

USA.gov is the U.S. government's official web portal to all federal, state and local government web resources and services.